sensor_id;sensor_type;location;lat;lon;timestamp;P1;durP1;ratioP1;P2;durP2;ratioP2
549;SDS011;20066;48.764;9.176;2022-10-23T00:01:43;8.13;;;4.27;;
549;SDS011;20066;48.764;9.176;2022-10-23T00:04:12;14.37;;;5.43;;
549;SDS011;20066;48.764;9.176;2022-10-23T00:06:41;12.17;;;5.03;;
549;SDS011;20066;48.764;9.176;2022-10-23T00:09:11;9.97;;;4.73;;
549;SDS011;20066;48.764;9.176;2022-10-23T00:11:43;7.43;;;3.77;;
549;SDS011;20066;48.764;9.176;2022-10-23T00:14:13;6.80;;;3.20;;
549;SDS011;20066;48.764;9.176;2022-10-23T00:16:42;7.50;;;3.87;;
549;SDS011;20066;48.764;9.176;2022-10-23T00:19:10;8.00;;;4.23;;
549;SDS011;20066;48.764;9.176;2022-10-23T00:21:38;17.40;;;4.77;;
549;SDS011;20066;48.764;9.176;2022-10-23T00:24:06;9.50;;;4.10;;
549;SDS011;20066;48.764;9.176;2022-10-23T00:26:39;15.87;;;5.17;;
549;SDS011;20066;48.764;9.176;2022-10-23T00:29:09;11.73;;;4.23;;
549;SDS011;20066;48.764;9.176;2022-10-23T00:31:37;9.70;;;4.37;;
549;SDS011;20066;48.764;9.176;2022-10-23T00:34:05;12.50;;;4.60;;
549;SDS011;20066;48.764;9.176;2022-10-23T00:36:34;8.93;;;3.97;;
549;SDS011;20066;48.764;9.176;2022-10-23T00:39:02;14.20;;;4.30;;
549;SDS011;20066;48.764;9.176;2022-10-23T00:41:30;12.13;;;3.97;;
549;SDS011;20066;48.764;9.176;2022-10-23T00:43:59;6.83;;;3.60;;
549;SDS011;20066;48.764;9.176;2022-10-23T00:46:32;11.80;;;4.60;;
549;SDS011;20066;48.764;9.176;2022-10-23T00:49:02;10.10;;;3.97;;
549;SDS011;20066;48.764;9.176;2022-10-23T00:51:32;11.73;;;4.00;;
549;SDS011;20066;48.764;9.176;2022-10-23T00:54:05;12.87;;;3.87;;
549;SDS011;20066;48.764;9.176;2022-10-23T00:56:50;6.60;;;3.80;;
549;SDS011;20066;48.764;9.176;2022-10-23T00:59:20;9.13;;;3.90;;
549;SDS011;20066;48.764;9.176;2022-10-23T01:01:49;14.50;;;3.83;;
549;SDS011;20066;48.764;9.176;2022-10-23T01:04:17;9.60;;;3.77;;
549;SDS011;20066;48.764;9.176;2022-10-23T01:06:48;6.30;;;3.07;;
549;SDS011;20066;48.764;9.176;2022-10-23T01:09:25;7.67;;;3.50;;
549;SDS011;20066;48.764;9.176;2022-10-23T01:11:59;12.73;;;4.07;;
549;SDS011;20066;48.764;9.176;2022-10-23T01:14:35;8.50;;;3.33;;
549;SDS011;20066;48.764;9.176;2022-10-23T01:17:11;10.33;;;3.70;;
549;SDS011;20066;48.764;9.176;2022-10-23T01:19:49;6.90;;;3.03;;
549;SDS011;20066;48.764;9.176;2022-10-23T01:22:36;9.60;;;3.70;;
549;SDS011;20066;48.764;9.176;2022-10-23T01:25:19;6.50;;;3.50;;
549;SDS011;20066;48.764;9.176;2022-10-23T01:27:58;7.00;;;3.37;;
549;SDS011;20066;48.764;9.176;2022-10-23T01:30:29;8.53;;;3.73;;
549;SDS011;20066;48.764;9.176;2022-10-23T01:32:59;8.87;;;4.40;;
549;SDS011;20066;48.764;9.176;2022-10-23T01:35:32;17.23;;;4.00;;
549;SDS011;20066;48.764;9.176;2022-10-23T01:38:05;9.77;;;3.23;;
549;SDS011;20066;48.764;9.176;2022-10-23T01:40:39;7.93;;;3.30;;
549;SDS011;20066;48.764;9.176;2022-10-23T01:43:15;9.20;;;3.47;;
549;SDS011;20066;48.764;9.176;2022-10-23T01:45:46;5.27;;;2.73;;
549;SDS011;20066;48.764;9.176;2022-10-23T01:48:17;7.10;;;3.10;;
549;SDS011;20066;48.764;9.176;2022-10-23T01:50:50;5.20;;;3.40;;
549;SDS011;20066;48.764;9.176;2022-10-23T01:53:21;8.30;;;3.07;;
549;SDS011;20066;48.764;9.176;2022-10-23T01:55:52;6.70;;;3.20;;
549;SDS011;20066;48.764;9.176;2022-10-23T01:58:23;10.63;;;3.67;;
549;SDS011;20066;48.764;9.176;2022-10-23T02:00:52;8.50;;;3.50;;
549;SDS011;20066;48.764;9.176;2022-10-23T02:03:25;10.63;;;3.60;;
549;SDS011;20066;48.764;9.176;2022-10-23T02:05:55;9.87;;;3.37;;
549;SDS011;20066;48.764;9.176;2022-10-23T02:08:23;7.60;;;3.63;;
549;SDS011;20066;48.764;9.176;2022-10-23T02:10:51;12.07;;;3.63;;
549;SDS011;20066;48.764;9.176;2022-10-23T02:13:28;8.67;;;2.50;;
549;SDS011;20066;48.764;9.176;2022-10-23T02:16:02;6.90;;;2.90;;
549;SDS011;20066;48.764;9.176;2022-10-23T02:18:36;6.27;;;3.13;;
549;SDS011;20066;48.764;9.176;2022-10-23T02:21:10;11.17;;;2.40;;
549;SDS011;20066;48.764;9.176;2022-10-23T02:23:45;6.23;;;2.87;;
549;SDS011;20066;48.764;9.176;2022-10-23T02:26:23;9.70;;;2.70;;
549;SDS011;20066;48.764;9.176;2022-10-23T02:28:57;7.07;;;2.70;;
549;SDS011;20066;48.764;9.176;2022-10-23T02:31:28;7.20;;;2.77;;
549;SDS011;20066;48.764;9.176;2022-10-23T02:33:56;10.20;;;2.80;;
549;SDS011;20066;48.764;9.176;2022-10-23T02:36:23;5.50;;;3.37;;
549;SDS011;20066;48.764;9.176;2022-10-23T02:38:51;9.63;;;2.70;;
549;SDS011;20066;48.764;9.176;2022-10-23T02:41:24;8.20;;;3.27;;
549;SDS011;20066;48.764;9.176;2022-10-23T02:44:13;7.67;;;3.37;;
549;SDS011;20066;48.764;9.176;2022-10-23T02:46:50;7.73;;;3.03;;
549;SDS011;20066;48.764;9.176;2022-10-23T02:49:23;5.10;;;2.90;;
549;SDS011;20066;48.764;9.176;2022-10-23T02:52:01;6.27;;;2.57;;
549;SDS011;20066;48.764;9.176;2022-10-23T02:54:41;7.73;;;2.80;;
549;SDS011;20066;48.764;9.176;2022-10-23T02:57:24;14.40;;;3.00;;
549;SDS011;20066;48.764;9.176;2022-10-23T03:00:00;10.60;;;2.63;;
549;SDS011;20066;48.764;9.176;2022-10-23T03:02:31;13.87;;;2.53;;
549;SDS011;20066;48.764;9.176;2022-10-23T03:05:04;5.10;;;2.60;;
549;SDS011;20066;48.764;9.176;2022-10-23T03:07:35;6.23;;;2.50;;
549;SDS011;20066;48.764;9.176;2022-10-23T03:10:07;6.93;;;2.70;;
549;SDS011;20066;48.764;9.176;2022-10-23T03:12:36;6.57;;;2.47;;
549;SDS011;20066;48.764;9.176;2022-10-23T03:15:06;15.83;;;3.20;;
549;SDS011;20066;48.764;9.176;2022-10-23T03:17:34;5.70;;;3.20;;
549;SDS011;20066;48.764;9.176;2022-10-23T03:20:02;10.40;;;2.97;;
549;SDS011;20066;48.764;9.176;2022-10-23T03:22:30;6.20;;;2.60;;
549;SDS011;20066;48.764;9.176;2022-10-23T03:24:58;5.00;;;2.60;;
549;SDS011;20066;48.764;9.176;2022-10-23T03:27:25;5.43;;;2.30;;
549;SDS011;20066;48.764;9.176;2022-10-23T03:29:53;6.60;;;2.53;;
549;SDS011;20066;48.764;9.176;2022-10-23T03:32:22;8.23;;;2.63;;
549;SDS011;20066;48.764;9.176;2022-10-23T03:34:50;6.70;;;2.70;;
549;SDS011;20066;48.764;9.176;2022-10-23T03:37:17;8.27;;;2.60;;
549;SDS011;20066;48.764;9.176;2022-10-23T03:39:45;9.10;;;2.33;;
549;SDS011;20066;48.764;9.176;2022-10-23T03:42:13;9.10;;;2.57;;
549;SDS011;20066;48.764;9.176;2022-10-23T03:44:40;5.83;;;2.37;;
549;SDS011;20066;48.764;9.176;2022-10-23T03:47:08;9.03;;;2.97;;
549;SDS011;20066;48.764;9.176;2022-10-23T03:49:38;5.20;;;2.57;;
549;SDS011;20066;48.764;9.176;2022-10-23T03:52:06;5.80;;;2.83;;
549;SDS011;20066;48.764;9.176;2022-10-23T03:54:34;5.90;;;2.63;;
549;SDS011;20066;48.764;9.176;2022-10-23T03:57:02;14.60;;;2.77;;
549;SDS011;20066;48.764;9.176;2022-10-23T03:59:30;8.00;;;2.50;;
549;SDS011;20066;48.764;9.176;2022-10-23T04:01:57;7.53;;;2.50;;
549;SDS011;20066;48.764;9.176;2022-10-23T04:04:25;10.37;;;2.80;;
549;SDS011;20066;48.764;9.176;2022-10-23T04:06:54;7.40;;;2.70;;
549;SDS011;20066;48.764;9.176;2022-10-23T04:09:22;6.20;;;2.80;;
549;SDS011;20066;48.764;9.176;2022-10-23T04:11:50;10.20;;;2.40;;
549;SDS011;20066;48.764;9.176;2022-10-23T04:14:17;4.37;;;2.57;;
549;SDS011;20066;48.764;9.176;2022-10-23T04:16:45;6.10;;;2.70;;
549;SDS011;20066;48.764;9.176;2022-10-23T04:19:12;6.83;;;2.53;;
549;SDS011;20066;48.764;9.176;2022-10-23T04:21:42;6.60;;;2.23;;
549;SDS011;20066;48.764;9.176;2022-10-23T04:24:11;5.73;;;2.40;;
549;SDS011;20066;48.764;9.176;2022-10-23T04:26:39;6.30;;;2.83;;
549;SDS011;20066;48.764;9.176;2022-10-23T04:29:06;6.60;;;2.60;;
549;SDS011;20066;48.764;9.176;2022-10-23T04:31:34;4.93;;;2.60;;
549;SDS011;20066;48.764;9.176;2022-10-23T04:34:02;7.67;;;3.00;;
549;SDS011;20066;48.764;9.176;2022-10-23T04:36:34;14.00;;;3.37;;
549;SDS011;20066;48.764;9.176;2022-10-23T04:39:02;14.87;;;2.90;;
549;SDS011;20066;48.764;9.176;2022-10-23T04:41:31;4.70;;;3.10;;
549;SDS011;20066;48.764;9.176;2022-10-23T04:43:59;7.20;;;2.50;;
549;SDS011;20066;48.764;9.176;2022-10-23T04:46:27;8.23;;;3.27;;
549;SDS011;20066;48.764;9.176;2022-10-23T04:48:54;5.73;;;2.60;;
549;SDS011;20066;48.764;9.176;2022-10-23T04:51:22;9.67;;;2.80;;
549;SDS011;20066;48.764;9.176;2022-10-23T04:53:50;8.67;;;2.90;;
549;SDS011;20066;48.764;9.176;2022-10-23T04:56:17;6.13;;;2.40;;
549;SDS011;20066;48.764;9.176;2022-10-23T04:58:46;6.80;;;3.00;;
549;SDS011;20066;48.764;9.176;2022-10-23T05:01:14;6.03;;;2.70;;
549;SDS011;20066;48.764;9.176;2022-10-23T05:03:42;3.80;;;2.23;;
549;SDS011;20066;48.764;9.176;2022-10-23T05:06:10;6.30;;;2.40;;
549;SDS011;20066;48.764;9.176;2022-10-23T05:08:37;4.70;;;2.83;;
549;SDS011;20066;48.764;9.176;2022-10-23T05:11:05;5.80;;;2.80;;
549;SDS011;20066;48.764;9.176;2022-10-23T05:13:33;5.90;;;2.50;;
549;SDS011;20066;48.764;9.176;2022-10-23T05:16:02;5.90;;;2.40;;
549;SDS011;20066;48.764;9.176;2022-10-23T05:18:31;7.30;;;2.60;;
549;SDS011;20066;48.764;9.176;2022-10-23T05:21:02;7.33;;;2.40;;
549;SDS011;20066;48.764;9.176;2022-10-23T05:23:32;4.97;;;2.17;;
549;SDS011;20066;48.764;9.176;2022-10-23T05:26:03;5.67;;;2.80;;
549;SDS011;20066;48.764;9.176;2022-10-23T05:28:31;5.10;;;2.73;;
549;SDS011;20066;48.764;9.176;2022-10-23T05:30:59;6.10;;;2.60;;
549;SDS011;20066;48.764;9.176;2022-10-23T05:33:30;4.73;;;2.50;;
549;SDS011;20066;48.764;9.176;2022-10-23T05:35:59;9.60;;;2.60;;
549;SDS011;20066;48.764;9.176;2022-10-23T05:38:28;4.80;;;2.60;;
549;SDS011;20066;48.764;9.176;2022-10-23T05:40:59;9.87;;;3.10;;
549;SDS011;20066;48.764;9.176;2022-10-23T05:43:26;6.00;;;3.10;;
549;SDS011;20066;48.764;9.176;2022-10-23T05:45:56;4.13;;;2.47;;
549;SDS011;20066;48.764;9.176;2022-10-23T05:48:24;4.00;;;2.10;;
549;SDS011;20066;48.764;9.176;2022-10-23T05:51:05;9.83;;;2.33;;
549;SDS011;20066;48.764;9.176;2022-10-23T05:53:33;5.10;;;2.40;;
549;SDS011;20066;48.764;9.176;2022-10-23T05:56:07;5.13;;;2.40;;
549;SDS011;20066;48.764;9.176;2022-10-23T05:58:35;7.37;;;2.40;;
549;SDS011;20066;48.764;9.176;2022-10-23T06:01:03;6.87;;;2.47;;
549;SDS011;20066;48.764;9.176;2022-10-23T06:03:32;6.03;;;2.40;;
549;SDS011;20066;48.764;9.176;2022-10-23T06:06:00;6.17;;;2.03;;
549;SDS011;20066;48.764;9.176;2022-10-23T06:08:29;7.97;;;2.47;;
549;SDS011;20066;48.764;9.176;2022-10-23T06:10:57;5.70;;;2.53;;
549;SDS011;20066;48.764;9.176;2022-10-23T06:13:31;8.07;;;2.50;;
549;SDS011;20066;48.764;9.176;2022-10-23T06:15:58;7.90;;;2.70;;
549;SDS011;20066;48.764;9.176;2022-10-23T06:18:26;4.57;;;2.70;;
549;SDS011;20066;48.764;9.176;2022-10-23T06:20:54;4.23;;;2.40;;
549;SDS011;20066;48.764;9.176;2022-10-23T06:23:21;5.73;;;2.90;;
549;SDS011;20066;48.764;9.176;2022-10-23T06:25:51;8.27;;;3.10;;
549;SDS011;20066;48.764;9.176;2022-10-23T06:28:21;6.50;;;2.90;;
549;SDS011;20066;48.764;9.176;2022-10-23T06:30:48;6.00;;;2.50;;
549;SDS011;20066;48.764;9.176;2022-10-23T06:33:17;8.97;;;2.53;;
549;SDS011;20066;48.764;9.176;2022-10-23T06:35:45;7.27;;;2.67;;
549;SDS011;20066;48.764;9.176;2022-10-23T06:38:13;3.60;;;2.50;;
549;SDS011;20066;48.764;9.176;2022-10-23T06:40:41;10.30;;;3.30;;
549;SDS011;20066;48.764;9.176;2022-10-23T06:43:13;6.73;;;2.50;;
549;SDS011;20066;48.764;9.176;2022-10-23T06:45:41;6.47;;;2.30;;
549;SDS011;20066;48.764;9.176;2022-10-23T06:48:09;9.63;;;2.37;;
549;SDS011;20066;48.764;9.176;2022-10-23T06:50:37;7.13;;;2.23;;
549;SDS011;20066;48.764;9.176;2022-10-23T06:53:05;9.33;;;2.47;;
549;SDS011;20066;48.764;9.176;2022-10-23T06:55:35;4.93;;;1.90;;
549;SDS011;20066;48.764;9.176;2022-10-23T06:58:05;4.27;;;2.27;;
549;SDS011;20066;48.764;9.176;2022-10-23T07:00:37;7.37;;;2.77;;
549;SDS011;20066;48.764;9.176;2022-10-23T07:03:06;12.30;;;2.70;;
549;SDS011;20066;48.764;9.176;2022-10-23T07:05:34;4.43;;;2.37;;
549;SDS011;20066;48.764;9.176;2022-10-23T07:08:03;4.83;;;2.50;;
549;SDS011;20066;48.764;9.176;2022-10-23T07:10:30;6.67;;;2.57;;
549;SDS011;20066;48.764;9.176;2022-10-23T07:12:58;13.07;;;2.40;;
549;SDS011;20066;48.764;9.176;2022-10-23T07:15:26;10.43;;;2.63;;
549;SDS011;20066;48.764;9.176;2022-10-23T07:17:55;8.30;;;2.73;;
549;SDS011;20066;48.764;9.176;2022-10-23T07:20:23;6.83;;;2.27;;
549;SDS011;20066;48.764;9.176;2022-10-23T07:22:51;9.03;;;2.73;;
549;SDS011;20066;48.764;9.176;2022-10-23T07:25:20;6.23;;;2.67;;
549;SDS011;20066;48.764;9.176;2022-10-23T07:27:48;5.70;;;2.50;;
549;SDS011;20066;48.764;9.176;2022-10-23T07:30:16;5.70;;;2.73;;
549;SDS011;20066;48.764;9.176;2022-10-23T07:32:44;4.70;;;2.80;;
549;SDS011;20066;48.764;9.176;2022-10-23T07:35:13;12.30;;;3.60;;
549;SDS011;20066;48.764;9.176;2022-10-23T07:37:41;8.60;;;2.80;;
549;SDS011;20066;48.764;9.176;2022-10-23T07:40:10;6.73;;;2.73;;
549;SDS011;20066;48.764;9.176;2022-10-23T07:42:38;9.23;;;4.00;;
549;SDS011;20066;48.764;9.176;2022-10-23T07:45:07;9.37;;;2.90;;
549;SDS011;20066;48.764;9.176;2022-10-23T07:47:35;11.23;;;2.87;;
549;SDS011;20066;48.764;9.176;2022-10-23T07:50:03;4.17;;;2.67;;
549;SDS011;20066;48.764;9.176;2022-10-23T07:52:34;13.53;;;2.70;;
549;SDS011;20066;48.764;9.176;2022-10-23T07:55:03;5.70;;;2.90;;
549;SDS011;20066;48.764;9.176;2022-10-23T07:57:31;5.80;;;2.90;;
549;SDS011;20066;48.764;9.176;2022-10-23T07:59:59;6.37;;;2.13;;
549;SDS011;20066;48.764;9.176;2022-10-23T08:02:31;7.60;;;2.63;;
549;SDS011;20066;48.764;9.176;2022-10-23T08:05:00;6.20;;;2.70;;
549;SDS011;20066;48.764;9.176;2022-10-23T08:07:28;6.83;;;2.20;;
549;SDS011;20066;48.764;9.176;2022-10-23T08:09:58;8.10;;;3.30;;
549;SDS011;20066;48.764;9.176;2022-10-23T08:12:26;16.73;;;7.97;;
549;SDS011;20066;48.764;9.176;2022-10-23T08:14:58;14.50;;;6.47;;
549;SDS011;20066;48.764;9.176;2022-10-23T08:17:26;10.30;;;3.83;;
549;SDS011;20066;48.764;9.176;2022-10-23T08:19:54;9.30;;;4.00;;
549;SDS011;20066;48.764;9.176;2022-10-23T08:22:22;6.33;;;3.33;;
549;SDS011;20066;48.764;9.176;2022-10-23T08:24:51;8.53;;;3.20;;
549;SDS011;20066;48.764;9.176;2022-10-23T08:27:20;7.23;;;3.10;;
549;SDS011;20066;48.764;9.176;2022-10-23T08:29:48;8.40;;;2.80;;
549;SDS011;20066;48.764;9.176;2022-10-23T08:32:16;4.20;;;2.50;;
549;SDS011;20066;48.764;9.176;2022-10-23T08:34:43;6.97;;;4.10;;
549;SDS011;20066;48.764;9.176;2022-10-23T08:37:11;8.27;;;3.93;;
549;SDS011;20066;48.764;9.176;2022-10-23T08:39:39;8.93;;;4.53;;
549;SDS011;20066;48.764;9.176;2022-10-23T08:42:14;9.40;;;3.90;;
549;SDS011;20066;48.764;9.176;2022-10-23T08:44:49;5.93;;;2.90;;
549;SDS011;20066;48.764;9.176;2022-10-23T08:47:26;8.20;;;4.00;;
549;SDS011;20066;48.764;9.176;2022-10-23T08:49:58;6.50;;;3.47;;
549;SDS011;20066;48.764;9.176;2022-10-23T08:52:31;7.53;;;4.10;;
549;SDS011;20066;48.764;9.176;2022-10-23T08:55:04;10.20;;;3.57;;
549;SDS011;20066;48.764;9.176;2022-10-23T08:57:42;7.40;;;3.37;;
549;SDS011;20066;48.764;9.176;2022-10-23T09:00:16;9.37;;;3.63;;
549;SDS011;20066;48.764;9.176;2022-10-23T09:02:45;8.87;;;3.30;;
549;SDS011;20066;48.764;9.176;2022-10-23T09:05:15;7.30;;;3.03;;
549;SDS011;20066;48.764;9.176;2022-10-23T09:07:48;5.80;;;3.10;;
549;SDS011;20066;48.764;9.176;2022-10-23T09:16:28;8.13;;;3.57;;
549;SDS011;20066;48.764;9.176;2022-10-23T09:19:15;6.87;;;3.63;;
549;SDS011;20066;48.764;9.176;2022-10-23T09:21:46;11.93;;;4.60;;
549;SDS011;20066;48.764;9.176;2022-10-23T09:24:16;10.07;;;4.73;;
549;SDS011;20066;48.764;9.176;2022-10-23T09:26:45;18.30;;;5.87;;
549;SDS011;20066;48.764;9.176;2022-10-23T09:29:18;9.20;;;4.20;;
549;SDS011;20066;48.764;9.176;2022-10-23T09:31:52;6.43;;;2.90;;
549;SDS011;20066;48.764;9.176;2022-10-23T09:34:21;6.80;;;3.23;;
549;SDS011;20066;48.764;9.176;2022-10-23T09:36:53;6.30;;;2.80;;
549;SDS011;20066;48.764;9.176;2022-10-23T09:39:24;5.67;;;3.13;;
549;SDS011;20066;48.764;9.176;2022-10-23T09:41:54;9.50;;;3.10;;
549;SDS011;20066;48.764;9.176;2022-10-23T09:44:23;7.60;;;2.53;;
549;SDS011;20066;48.764;9.176;2022-10-23T09:46:54;7.33;;;3.07;;
549;SDS011;20066;48.764;9.176;2022-10-23T09:49:26;6.73;;;3.03;;
549;SDS011;20066;48.764;9.176;2022-10-23T09:51:58;10.23;;;3.10;;
549;SDS011;20066;48.764;9.176;2022-10-23T09:54:28;6.90;;;2.90;;
549;SDS011;20066;48.764;9.176;2022-10-23T09:56:59;9.50;;;3.70;;
549;SDS011;20066;48.764;9.176;2022-10-23T09:59:31;5.97;;;2.80;;
549;SDS011;20066;48.764;9.176;2022-10-23T10:02:01;4.60;;;2.67;;
549;SDS011;20066;48.764;9.176;2022-10-23T10:04:46;7.33;;;2.73;;
549;SDS011;20066;48.764;9.176;2022-10-23T10:07:17;6.80;;;2.80;;
549;SDS011;20066;48.764;9.176;2022-10-23T10:09:45;7.30;;;3.10;;
549;SDS011;20066;48.764;9.176;2022-10-23T10:12:18;6.60;;;3.00;;
549;SDS011;20066;48.764;9.176;2022-10-23T10:15:07;6.60;;;3.27;;
549;SDS011;20066;48.764;9.176;2022-10-23T10:17:45;8.70;;;2.90;;
549;SDS011;20066;48.764;9.176;2022-10-23T10:20:24;6.97;;;2.67;;
549;SDS011;20066;48.764;9.176;2022-10-23T10:23:06;4.70;;;1.87;;
549;SDS011;20066;48.764;9.176;2022-10-23T10:25:45;6.47;;;2.20;;
549;SDS011;20066;48.764;9.176;2022-10-23T10:28:27;12.53;;;2.87;;
549;SDS011;20066;48.764;9.176;2022-10-23T10:31:07;19.50;;;2.00;;
549;SDS011;20066;48.764;9.176;2022-10-23T10:33:42;6.40;;;1.70;;
549;SDS011;20066;48.764;9.176;2022-10-23T10:36:24;5.60;;;1.20;;
549;SDS011;20066;48.764;9.176;2022-10-23T10:39:10;2.53;;;0.90;;
549;SDS011;20066;48.764;9.176;2022-10-23T10:41:44;4.37;;;1.37;;
549;SDS011;20066;48.764;9.176;2022-10-23T10:44:39;2.93;;;1.30;;
549;SDS011;20066;48.764;9.176;2022-10-23T10:47:18;3.37;;;1.10;;
549;SDS011;20066;48.764;9.176;2022-10-23T10:49:54;3.67;;;1.20;;
549;SDS011;20066;48.764;9.176;2022-10-23T10:52:32;3.30;;;1.10;;
549;SDS011;20066;48.764;9.176;2022-10-23T10:55:16;3.73;;;1.20;;
549;SDS011;20066;48.764;9.176;2022-10-23T10:57:51;2.27;;;1.03;;
549;SDS011;20066;48.764;9.176;2022-10-23T11:00:25;2.87;;;1.20;;
549;SDS011;20066;48.764;9.176;2022-10-23T11:02:56;2.47;;;1.10;;
549;SDS011;20066;48.764;9.176;2022-10-23T11:05:31;2.47;;;0.90;;
549;SDS011;20066;48.764;9.176;2022-10-23T11:08:03;6.43;;;1.97;;
549;SDS011;20066;48.764;9.176;2022-10-23T11:10:40;3.23;;;1.80;;
549;SDS011;20066;48.764;9.176;2022-10-23T11:13:25;4.53;;;1.73;;
549;SDS011;20066;48.764;9.176;2022-10-23T11:15:54;7.73;;;1.40;;
549;SDS011;20066;48.764;9.176;2022-10-23T11:18:25;3.40;;;1.40;;
549;SDS011;20066;48.764;9.176;2022-10-23T11:20:59;4.13;;;1.30;;
549;SDS011;20066;48.764;9.176;2022-10-23T11:23:44;4.10;;;1.30;;
549;SDS011;20066;48.764;9.176;2022-10-23T11:26:27;4.17;;;1.80;;
549;SDS011;20066;48.764;9.176;2022-10-23T11:29:17;3.47;;;1.80;;
549;SDS011;20066;48.764;9.176;2022-10-23T11:32:01;5.90;;;1.73;;
549;SDS011;20066;48.764;9.176;2022-10-23T11:34:43;6.07;;;1.40;;
549;SDS011;20066;48.764;9.176;2022-10-23T11:37:24;7.07;;;1.63;;
549;SDS011;20066;48.764;9.176;2022-10-23T11:39:57;3.80;;;1.90;;
549;SDS011;20066;48.764;9.176;2022-10-23T11:42:30;5.40;;;1.70;;
549;SDS011;20066;48.764;9.176;2022-10-23T11:47:57;3.57;;;1.50;;
549;SDS011;20066;48.764;9.176;2022-10-23T11:50:27;4.13;;;2.30;;
549;SDS011;20066;48.764;9.176;2022-10-23T11:53:00;6.27;;;2.10;;
549;SDS011;20066;48.764;9.176;2022-10-23T11:55:55;3.87;;;1.70;;
549;SDS011;20066;48.764;9.176;2022-10-23T11:58:39;6.23;;;1.93;;
549;SDS011;20066;48.764;9.176;2022-10-23T12:01:26;4.20;;;1.87;;
549;SDS011;20066;48.764;9.176;2022-10-23T12:03:58;8.33;;;2.07;;
549;SDS011;20066;48.764;9.176;2022-10-23T12:06:29;5.30;;;1.80;;
549;SDS011;20066;48.764;9.176;2022-10-23T12:09:06;3.50;;;1.60;;
549;SDS011;20066;48.764;9.176;2022-10-23T12:11:48;7.60;;;2.23;;
549;SDS011;20066;48.764;9.176;2022-10-23T12:14:31;6.93;;;2.30;;
549;SDS011;20066;48.764;9.176;2022-10-23T12:17:01;4.27;;;1.93;;
549;SDS011;20066;48.764;9.176;2022-10-23T12:19:46;12.70;;;1.80;;
549;SDS011;20066;48.764;9.176;2022-10-23T12:22:15;7.53;;;2.20;;
549;SDS011;20066;48.764;9.176;2022-10-23T12:24:53;4.80;;;1.83;;
549;SDS011;20066;48.764;9.176;2022-10-23T12:27:29;7.47;;;2.33;;
549;SDS011;20066;48.764;9.176;2022-10-23T12:30:18;5.90;;;1.83;;
549;SDS011;20066;48.764;9.176;2022-10-23T12:33:02;6.60;;;2.30;;
549;SDS011;20066;48.764;9.176;2022-10-23T12:38:38;4.80;;;1.70;;
549;SDS011;20066;48.764;9.176;2022-10-23T12:41:12;5.67;;;1.93;;
549;SDS011;20066;48.764;9.176;2022-10-23T12:43:41;4.90;;;2.30;;
549;SDS011;20066;48.764;9.176;2022-10-23T12:46:21;3.33;;;1.70;;
549;SDS011;20066;48.764;9.176;2022-10-23T12:48:59;2.90;;;1.57;;
549;SDS011;20066;48.764;9.176;2022-10-23T12:51:31;3.80;;;1.77;;
549;SDS011;20066;48.764;9.176;2022-10-23T12:54:00;6.70;;;2.13;;
549;SDS011;20066;48.764;9.176;2022-10-23T12:56:34;3.90;;;1.97;;
549;SDS011;20066;48.764;9.176;2022-10-23T12:59:09;4.00;;;2.40;;
549;SDS011;20066;48.764;9.176;2022-10-23T13:01:40;3.77;;;2.13;;
549;SDS011;20066;48.764;9.176;2022-10-23T13:04:12;3.83;;;1.50;;
549;SDS011;20066;48.764;9.176;2022-10-23T13:06:48;3.70;;;1.80;;
549;SDS011;20066;48.764;9.176;2022-10-23T13:09:20;4.77;;;1.37;;
549;SDS011;20066;48.764;9.176;2022-10-23T13:11:52;9.97;;;2.30;;
549;SDS011;20066;48.764;9.176;2022-10-23T13:14:27;4.80;;;2.23;;
549;SDS011;20066;48.764;9.176;2022-10-23T13:16:59;7.63;;;2.90;;
549;SDS011;20066;48.764;9.176;2022-10-23T13:19:28;5.00;;;2.70;;
549;SDS011;20066;48.764;9.176;2022-10-23T13:21:55;4.40;;;2.67;;
549;SDS011;20066;48.764;9.176;2022-10-23T13:24:24;5.40;;;2.47;;
549;SDS011;20066;48.764;9.176;2022-10-23T13:26:55;7.30;;;3.90;;
549;SDS011;20066;48.764;9.176;2022-10-23T13:29:24;5.20;;;2.60;;
549;SDS011;20066;48.764;9.176;2022-10-23T13:31:55;8.13;;;3.20;;
549;SDS011;20066;48.764;9.176;2022-10-23T13:34:24;7.50;;;2.80;;
549;SDS011;20066;48.764;9.176;2022-10-23T13:39:59;5.83;;;2.57;;
549;SDS011;20066;48.764;9.176;2022-10-23T13:42:29;3.83;;;2.20;;
549;SDS011;20066;48.764;9.176;2022-10-23T13:44:57;6.27;;;2.40;;
549;SDS011;20066;48.764;9.176;2022-10-23T13:47:25;7.43;;;3.20;;
549;SDS011;20066;48.764;9.176;2022-10-23T13:49:53;5.57;;;2.83;;
549;SDS011;20066;48.764;9.176;2022-10-23T13:52:21;13.03;;;3.00;;
549;SDS011;20066;48.764;9.176;2022-10-23T13:54:49;7.50;;;3.10;;
549;SDS011;20066;48.764;9.176;2022-10-23T13:57:17;7.37;;;3.10;;
549;SDS011;20066;48.764;9.176;2022-10-23T13:59:46;5.73;;;3.20;;
549;SDS011;20066;48.764;9.176;2022-10-23T14:02:17;11.63;;;2.50;;
549;SDS011;20066;48.764;9.176;2022-10-23T14:04:46;5.30;;;2.50;;
549;SDS011;20066;48.764;9.176;2022-10-23T14:07:14;4.50;;;2.37;;
549;SDS011;20066;48.764;9.176;2022-10-23T14:09:43;7.00;;;2.97;;
549;SDS011;20066;48.764;9.176;2022-10-23T14:12:11;7.80;;;3.00;;
549;SDS011;20066;48.764;9.176;2022-10-23T14:14:39;6.43;;;2.70;;
549;SDS011;20066;48.764;9.176;2022-10-23T14:17:08;5.60;;;2.40;;
549;SDS011;20066;48.764;9.176;2022-10-23T14:19:36;6.27;;;3.20;;
549;SDS011;20066;48.764;9.176;2022-10-23T14:22:04;10.83;;;3.10;;
549;SDS011;20066;48.764;9.176;2022-10-23T14:24:31;8.90;;;3.30;;
549;SDS011;20066;48.764;9.176;2022-10-23T14:27:00;12.27;;;3.10;;
549;SDS011;20066;48.764;9.176;2022-10-23T14:29:27;7.00;;;2.67;;
549;SDS011;20066;48.764;9.176;2022-10-23T14:31:55;6.40;;;2.83;;
549;SDS011;20066;48.764;9.176;2022-10-23T14:34:25;8.10;;;2.97;;
549;SDS011;20066;48.764;9.176;2022-10-23T14:36:52;9.73;;;2.97;;
549;SDS011;20066;48.764;9.176;2022-10-23T14:39:34;5.50;;;2.13;;
549;SDS011;20066;48.764;9.176;2022-10-23T14:42:03;10.50;;;2.57;;
549;SDS011;20066;48.764;9.176;2022-10-23T14:44:30;4.87;;;2.60;;
549;SDS011;20066;48.764;9.176;2022-10-23T14:46:58;4.60;;;2.00;;
549;SDS011;20066;48.764;9.176;2022-10-23T14:49:28;13.40;;;2.80;;
549;SDS011;20066;48.764;9.176;2022-10-23T14:51:56;8.40;;;2.77;;
549;SDS011;20066;48.764;9.176;2022-10-23T14:54:24;8.13;;;3.20;;
549;SDS011;20066;48.764;9.176;2022-10-23T14:56:53;5.17;;;2.37;;
549;SDS011;20066;48.764;9.176;2022-10-23T14:59:21;15.03;;;2.90;;
549;SDS011;20066;48.764;9.176;2022-10-23T15:01:48;6.30;;;3.07;;
549;SDS011;20066;48.764;9.176;2022-10-23T15:04:16;10.50;;;3.47;;
549;SDS011;20066;48.764;9.176;2022-10-23T15:06:45;10.73;;;3.30;;
549;SDS011;20066;48.764;9.176;2022-10-23T15:09:13;8.70;;;3.43;;
549;SDS011;20066;48.764;9.176;2022-10-23T15:11:43;9.43;;;2.90;;
549;SDS011;20066;48.764;9.176;2022-10-23T15:14:12;9.00;;;3.33;;
549;SDS011;20066;48.764;9.176;2022-10-23T15:16:40;7.70;;;3.60;;
549;SDS011;20066;48.764;9.176;2022-10-23T15:19:09;7.53;;;3.00;;
549;SDS011;20066;48.764;9.176;2022-10-23T15:21:45;11.10;;;3.20;;
549;SDS011;20066;48.764;9.176;2022-10-23T15:24:13;6.40;;;3.33;;
549;SDS011;20066;48.764;9.176;2022-10-23T15:26:41;8.03;;;2.93;;
549;SDS011;20066;48.764;9.176;2022-10-23T15:29:10;10.73;;;2.97;;
549;SDS011;20066;48.764;9.176;2022-10-23T15:31:45;7.30;;;2.87;;
549;SDS011;20066;48.764;9.176;2022-10-23T15:34:16;12.17;;;3.43;;
549;SDS011;20066;48.764;9.176;2022-10-23T15:36:47;10.40;;;3.47;;
549;SDS011;20066;48.764;9.176;2022-10-23T15:39:16;12.00;;;3.30;;
549;SDS011;20066;48.764;9.176;2022-10-23T15:41:46;11.80;;;3.23;;
549;SDS011;20066;48.764;9.176;2022-10-23T15:44:18;8.53;;;3.20;;
549;SDS011;20066;48.764;9.176;2022-10-23T15:46:47;8.97;;;3.03;;
549;SDS011;20066;48.764;9.176;2022-10-23T15:49:17;13.00;;;3.20;;
549;SDS011;20066;48.764;9.176;2022-10-23T15:51:47;13.03;;;3.57;;
549;SDS011;20066;48.764;9.176;2022-10-23T15:54:17;11.73;;;3.73;;